createdAt,value
2024-01-29T00:01:13.136Z,101758.06
2024-01-29T00:03:41.125Z,101756.56
2024-01-29T00:06:09.022Z,101749.50
2024-01-29T00:08:36.617Z,101701.69
2024-01-29T00:11:04.330Z,101744.72
2024-01-29T00:13:32.025Z,101740.28
2024-01-29T00:16:00.640Z,101747.72
2024-01-29T00:18:28.541Z,101746.22
2024-01-29T00:20:58.881Z,101745.88
2024-01-29T00:23:26.415Z,101754.03
2024-01-29T00:25:54.128Z,101760.84
2024-01-29T00:28:21.663Z,101769.28
2024-01-29T00:30:49.678Z,101761.06
2024-01-29T00:33:17.377Z,101760.34
2024-01-29T00:35:45.385Z,101764.72
2024-01-29T00:38:13.068Z,101765.16
2024-01-29T00:40:40.562Z,101761.69
2024-01-29T00:43:08.322Z,101764.88
2024-01-29T00:45:36.305Z,101768.47
2024-01-29T00:48:04.308Z,101774.06
2024-01-29T00:50:32.240Z,101768.69
2024-01-29T00:52:59.763Z,101773.03
2024-01-29T00:55:27.269Z,101772.56
2024-01-29T00:57:54.939Z,101780.28
2024-01-29T01:00:22.855Z,101766.72
2024-01-29T01:02:50.450Z,101753.72
2024-01-29T01:05:18.169Z,101767.66
2024-01-29T01:07:45.962Z,101751.88
2024-01-29T01:10:13.784Z,101702.25
2024-01-29T01:12:41.420Z,101749.16
2024-01-29T01:15:10.044Z,101738.25
2024-01-29T01:17:38.637Z,101733.78
2024-01-29T01:20:07.772Z,101747.47
2024-01-29T01:22:35.348Z,101743.16
2024-01-29T01:25:03.212Z,101746.84
2024-01-29T01:27:30.722Z,101714.13
2024-01-29T01:29:58.420Z,101742.31
2024-01-29T01:32:28.901Z,101756.13
2024-01-29T01:34:56.717Z,101719.03
2024-01-29T01:37:24.294Z,101773.13
2024-01-29T01:39:54.615Z,101775.81
2024-01-29T01:42:23.998Z,101769.13
2024-01-29T01:44:51.699Z,101774.84
2024-01-29T01:47:19.545Z,101766.09
2024-01-29T01:49:47.801Z,101736.09
2024-01-29T01:52:18.942Z,101763.94
2024-01-29T01:54:47.573Z,101767.38
2024-01-29T01:57:16.889Z,101739.00
2024-01-29T01:59:45.649Z,101758.41
2024-01-29T02:02:14.592Z,101737.81
2024-01-29T02:04:42.326Z,101701.53
2024-01-29T02:07:10.327Z,101735.19
2024-01-29T02:09:38.216Z,101745.09
2024-01-29T02:12:06.193Z,101727.56
2024-01-29T02:14:34.184Z,101736.63
2024-01-29T02:17:02.128Z,101742.75
2024-01-29T02:19:49.810Z,101742.78
2024-01-29T02:22:17.283Z,101741.09
2024-01-29T02:24:44.817Z,101726.81
2024-01-29T02:27:12.497Z,101742.28
2024-01-29T02:29:40.290Z,101724.22
2024-01-29T02:32:07.830Z,101743.94
2024-01-29T02:34:35.651Z,101723.69
2024-01-29T02:37:03.352Z,101730.41
2024-01-29T02:39:31.157Z,101729.81
2024-01-29T02:41:59.118Z,101715.75
2024-01-29T02:44:26.729Z,101707.84
2024-01-29T02:46:56.214Z,101711.88
2024-01-29T02:49:23.807Z,101720.03
2024-01-29T02:51:51.404Z,101714.06
2024-01-29T02:54:19.168Z,101710.66
2024-01-29T02:56:46.594Z,101720.00
2024-01-29T02:59:14.233Z,101715.50
2024-01-29T03:01:41.736Z,101724.03
2024-01-29T03:04:09.507Z,101708.25
2024-01-29T03:06:37.149Z,101709.34
2024-01-29T03:09:05.312Z,101615.59
2024-01-29T03:11:32.920Z,101704.38
2024-01-29T03:14:02.285Z,101695.84
2024-01-29T03:16:30.012Z,101697.78
2024-01-29T03:18:57.726Z,101708.91
2024-01-29T03:21:27.702Z,101680.13
2024-01-29T03:23:58.312Z,101690.94
2024-01-29T03:26:26.177Z,101691.69
2024-01-29T03:28:54.001Z,101685.97
2024-01-29T03:31:21.935Z,101631.97
2024-01-29T03:33:50.344Z,101666.63
2024-01-29T03:36:18.117Z,101674.66
2024-01-29T03:38:45.687Z,101679.13
2024-01-29T03:41:13.447Z,101679.25
2024-01-29T03:43:41.196Z,101671.63
2024-01-29T03:46:08.630Z,101673.25
2024-01-29T03:48:37.136Z,101670.91
2024-01-29T03:51:04.942Z,101651.34
2024-01-29T03:53:32.530Z,101680.00
2024-01-29T03:55:59.963Z,101686.38
2024-01-29T03:58:28.012Z,101679.31
2024-01-29T04:00:56.034Z,101687.97
2024-01-29T04:03:23.681Z,101675.97
2024-01-29T04:05:51.388Z,101689.63
2024-01-29T04:08:19.351Z,101691.78
2024-01-29T04:10:46.930Z,101688.97
2024-01-29T04:13:14.442Z,101662.88
2024-01-29T04:15:42.326Z,101691.47
2024-01-29T04:18:10.154Z,101680.59
2024-01-29T04:20:37.839Z,101690.19
2024-01-29T04:23:05.537Z,101682.25
2024-01-29T04:25:32.920Z,101683.13
2024-01-29T04:28:00.488Z,101687.38
2024-01-29T04:30:28.396Z,101672.84
2024-01-29T04:32:56.192Z,101682.91
2024-01-29T04:35:24.077Z,101675.97
2024-01-29T04:37:51.662Z,101625.25
2024-01-29T04:40:19.391Z,101675.69
2024-01-29T04:42:47.407Z,101680.59
2024-01-29T04:45:15.165Z,101664.38
2024-01-29T04:47:42.902Z,101665.34
2024-01-29T04:50:10.771Z,101660.06
2024-01-29T04:52:38.255Z,101649.16
2024-01-29T04:55:06.379Z,101648.56
2024-01-29T04:57:35.078Z,101658.19
2024-01-29T05:00:04.906Z,101634.56
2024-01-29T05:02:33.047Z,101636.78
2024-01-29T05:05:00.480Z,101633.56
2024-01-29T05:07:28.282Z,101640.22
2024-01-29T05:09:55.959Z,101591.41
2024-01-29T05:12:25.080Z,101642.41
2024-01-29T05:14:52.800Z,101638.56
2024-01-29T05:17:20.355Z,101570.16
2024-01-29T05:19:48.747Z,101641.66
2024-01-29T05:22:16.563Z,101640.22
2024-01-29T05:24:44.347Z,101616.63
2024-01-29T05:27:12.096Z,101658.59
2024-01-29T05:29:39.705Z,101654.38
2024-01-29T05:32:07.818Z,101649.94
2024-01-29T05:34:35.520Z,101661.84
2024-01-29T05:37:03.212Z,101631.41
2024-01-29T05:39:30.827Z,101604.44
2024-01-29T05:41:58.579Z,101594.38
2024-01-29T05:44:26.163Z,101661.84
2024-01-29T05:46:53.739Z,101668.53
2024-01-29T05:49:22.746Z,101657.16
2024-01-29T05:51:52.930Z,101662.28
2024-01-29T05:54:20.575Z,101664.13
2024-01-29T05:56:51.215Z,101659.47
2024-01-29T05:59:19.776Z,101677.47
2024-01-29T06:01:47.901Z,101651.69
2024-01-29T06:04:15.758Z,101648.41
2024-01-29T06:06:44.716Z,101642.59
2024-01-29T06:09:12.703Z,101664.56
2024-01-29T06:11:40.444Z,101661.16
2024-01-29T06:14:08.360Z,101661.13
2024-01-29T06:16:35.974Z,101659.56
2024-01-29T06:19:03.673Z,101645.53
2024-01-29T06:21:32.258Z,101657.41
2024-01-29T06:23:59.856Z,101652.25
2024-01-29T06:26:27.691Z,101644.09
2024-01-29T06:28:56.534Z,101655.47
2024-01-29T06:31:25.402Z,101656.00
2024-01-29T06:33:57.547Z,101648.88
2024-01-29T06:36:26.769Z,101640.09
2024-01-29T06:38:54.484Z,101639.63
2024-01-29T06:41:23.348Z,101634.75
2024-01-29T06:43:51.267Z,101613.47
2024-01-29T06:46:19.075Z,101627.00
2024-01-29T06:48:46.686Z,101619.00
2024-01-29T06:51:16.471Z,101580.97
2024-01-29T06:53:44.434Z,101614.72
2024-01-29T06:56:11.864Z,101576.41
2024-01-29T06:58:39.504Z,101619.28
2024-01-29T07:01:08.541Z,101593.06
2024-01-29T07:03:36.557Z,101618.44
2024-01-29T07:06:05.411Z,101604.97
2024-01-29T07:08:33.065Z,101603.00
2024-01-29T07:11:02.438Z,101575.25
2024-01-29T07:13:31.722Z,101612.31
2024-01-29T07:16:00.998Z,101610.53
2024-01-29T07:18:28.696Z,101624.06
2024-01-29T07:20:56.557Z,101633.06
2024-01-29T07:23:24.653Z,101615.34
2024-01-29T07:25:52.312Z,101629.47
2024-01-29T07:28:20.038Z,101611.75
2024-01-29T07:30:47.639Z,101599.28
2024-01-29T07:33:15.344Z,101582.06
2024-01-29T07:35:43.658Z,101606.06
2024-01-29T07:38:11.510Z,101593.19
2024-01-29T07:40:39.016Z,101570.75
2024-01-29T07:43:06.636Z,101573.75
2024-01-29T07:45:34.939Z,101579.78
2024-01-29T07:48:06.078Z,101573.09
2024-01-29T07:50:34.192Z,101570.56
2024-01-29T07:53:03.832Z,101558.28
2024-01-29T07:55:31.592Z,101537.31
2024-01-29T07:57:59.200Z,101565.56
2024-01-29T08:00:27.300Z,101562.09
2024-01-29T08:02:55.349Z,101583.25
2024-01-29T08:05:23.103Z,101561.38
2024-01-29T08:07:51.017Z,101581.34
2024-01-29T08:10:18.562Z,101555.16
2024-01-29T08:12:47.787Z,101570.44
2024-01-29T08:15:17.233Z,101579.22
2024-01-29T08:17:45.055Z,101580.22
2024-01-29T08:20:12.974Z,101572.13
2024-01-29T08:22:40.768Z,101562.59
2024-01-29T08:25:08.686Z,101563.69
2024-01-29T08:27:36.884Z,101560.38
2024-01-29T08:30:05.174Z,101556.59
2024-01-29T08:32:33.445Z,101541.06
2024-01-29T08:35:01.365Z,101549.25
2024-01-29T08:37:29.345Z,101539.88
2024-01-29T08:39:56.977Z,101531.00
2024-01-29T08:42:24.849Z,101554.22
2024-01-29T08:44:57.454Z,101532.50
2024-01-29T08:47:25.831Z,101552.16
2024-01-29T08:49:53.784Z,101541.22
2024-01-29T08:52:21.376Z,101535.41
2024-01-29T08:54:50.169Z,101532.88
2024-01-29T08:57:18.690Z,101538.28
2024-01-29T08:59:46.253Z,101517.66
2024-01-29T09:02:14.383Z,101514.63
2024-01-29T09:04:42.941Z,101510.91
2024-01-29T09:07:11.202Z,101518.28
2024-01-29T09:09:38.737Z,101471.78
2024-01-29T09:12:06.589Z,101505.69
2024-01-29T09:14:34.302Z,101511.38
2024-01-29T09:17:01.985Z,101506.88
2024-01-29T09:19:29.590Z,101425.78
2024-01-29T09:21:57.376Z,101500.53
2024-01-29T09:24:24.856Z,101495.94
2024-01-29T09:26:52.773Z,101495.94
2024-01-29T09:29:20.332Z,101475.03
2024-01-29T09:31:47.761Z,101489.50
2024-01-29T09:34:15.601Z,101477.28
2024-01-29T09:36:43.414Z,101462.75
2024-01-29T09:39:11.215Z,101458.56
2024-01-29T09:41:40.189Z,101466.13
2024-01-29T09:44:09.117Z,101435.25
2024-01-29T09:46:41.582Z,101453.63
2024-01-29T09:49:10.100Z,101425.81
2024-01-29T09:51:37.826Z,101434.56
2024-01-29T09:54:06.610Z,101387.75
2024-01-29T09:56:34.195Z,101434.56
2024-01-29T09:59:02.026Z,101378.63
2024-01-29T10:01:30.681Z,101393.44
2024-01-29T10:03:59.036Z,101407.38
2024-01-29T10:06:28.932Z,101404.19
2024-01-29T10:08:58.694Z,101386.53
2024-01-29T10:11:27.441Z,101412.69
2024-01-29T10:14:01.034Z,101407.09
2024-01-29T10:16:28.752Z,101402.34
2024-01-29T10:18:58.299Z,101394.94
2024-01-29T10:21:26.227Z,101404.75
2024-01-29T10:24:00.601Z,101403.19
2024-01-29T10:26:28.389Z,101404.75
2024-01-29T10:29:03.964Z,101329.59
2024-01-29T10:31:32.689Z,101402.09
2024-01-29T10:34:01.351Z,101405.25
2024-01-29T10:36:32.056Z,101397.91
2024-01-29T10:39:04.980Z,101399.25
2024-01-29T10:41:34.043Z,101413.22
2024-01-29T10:44:05.387Z,101405.00
2024-01-29T10:46:39.265Z,101406.69
2024-01-29T10:49:09.915Z,101392.22
2024-01-29T10:51:38.302Z,101413.03
2024-01-29T10:54:06.879Z,101408.34
2024-01-29T10:56:34.290Z,101364.31
2024-01-29T10:59:03.732Z,101385.31
2024-01-29T11:01:33.233Z,101384.38
2024-01-29T11:04:02.428Z,101346.66
2024-01-29T11:06:51.058Z,101397.91
2024-01-29T11:09:24.039Z,101371.78
2024-01-29T11:11:54.973Z,101353.16
2024-01-29T11:14:26.791Z,101357.75
2024-01-29T11:16:55.189Z,101364.50
2024-01-29T11:19:25.145Z,101352.34
2024-01-29T11:21:52.951Z,101306.22
2024-01-29T11:24:23.635Z,101356.22
2024-01-29T11:26:53.780Z,101344.88
2024-01-29T11:29:24.134Z,101359.00
2024-01-29T11:31:55.232Z,101349.63
2024-01-29T11:34:30.248Z,101333.34
2024-01-29T11:36:58.988Z,101351.06
2024-01-29T11:39:29.272Z,101362.72
2024-01-29T11:41:57.980Z,101346.25
2024-01-29T11:44:27.282Z,101380.19
2024-01-29T11:46:56.704Z,101352.44
2024-01-29T11:49:29.135Z,101346.78
2024-01-29T11:51:57.529Z,101315.72
2024-01-29T11:54:26.015Z,101349.81
2024-01-29T11:56:53.743Z,101295.66
2024-01-29T11:59:21.346Z,101315.84
2024-01-29T12:01:51.499Z,101341.09
2024-01-29T12:04:20.046Z,101291.03
2024-01-29T12:06:52.737Z,101304.22
2024-01-29T12:09:20.704Z,101307.75
2024-01-29T12:11:48.383Z,101306.56
2024-01-29T12:14:16.713Z,101300.06
2024-01-29T12:16:44.502Z,101290.13
2024-01-29T12:19:24.606Z,101279.63
2024-01-29T12:21:52.678Z,101285.31
2024-01-29T12:24:21.782Z,101300.09
2024-01-29T12:27:07.821Z,101298.13
2024-01-29T12:29:49.941Z,101283.91
2024-01-29T12:32:21.902Z,101301.63
2024-01-29T12:34:49.665Z,101260.88
2024-01-29T12:37:26.145Z,101289.56
2024-01-29T12:39:57.716Z,101306.69
2024-01-29T12:42:30.147Z,101307.69
2024-01-29T12:45:08.894Z,101252.91
2024-01-29T12:47:38.721Z,101301.41
2024-01-29T12:50:06.819Z,101306.56
2024-01-29T12:52:34.582Z,101279.00
2024-01-29T12:55:02.126Z,101293.19
2024-01-29T12:57:31.403Z,101282.81
2024-01-29T12:59:58.949Z,101244.59
2024-01-29T13:02:26.807Z,101279.81
2024-01-29T13:04:54.854Z,101267.00
2024-01-29T13:07:22.491Z,101280.16
2024-01-29T13:09:53.495Z,101252.00
2024-01-29T13:12:21.808Z,101271.63
2024-01-29T13:14:49.800Z,101279.13
2024-01-29T13:17:17.694Z,101189.47
2024-01-29T13:19:45.435Z,101246.59
2024-01-29T13:22:13.240Z,101193.47
2024-01-29T13:24:41.051Z,101234.13
2024-01-29T13:27:08.823Z,101238.94
2024-01-29T13:29:37.710Z,101243.91
2024-01-29T13:32:05.488Z,101201.09
2024-01-29T13:34:33.250Z,101239.88
2024-01-29T13:37:01.040Z,101238.19
2024-01-29T13:39:28.722Z,101231.66
2024-01-29T13:41:56.410Z,101187.56
2024-01-29T13:44:24.097Z,101219.53
2024-01-29T13:46:52.415Z,101225.38
2024-01-29T13:49:20.220Z,101204.47
2024-01-29T13:51:48.146Z,101230.28
2024-01-29T13:54:15.752Z,101234.34
2024-01-29T13:56:43.620Z,101244.22
2024-01-29T13:59:11.415Z,101238.50
2024-01-29T14:01:43.997Z,101237.69
2024-01-29T14:04:43.664Z,101238.34
2024-01-29T14:07:12.469Z,101196.69
2024-01-29T14:09:40.266Z,101228.88
2024-01-29T14:12:08.406Z,101231.53
2024-01-29T14:14:41.239Z,101228.38
2024-01-29T14:17:14.377Z,101221.53
2024-01-29T14:19:42.156Z,101199.91
2024-01-29T14:22:09.914Z,101212.94
2024-01-29T14:24:38.668Z,101149.16
2024-01-29T14:27:06.485Z,101203.22
2024-01-29T14:29:34.163Z,101190.00
2024-01-29T14:32:02.200Z,101193.72
2024-01-29T14:34:29.874Z,101190.63
2024-01-29T14:36:57.750Z,101209.00
2024-01-29T14:39:25.716Z,101176.03
2024-01-29T14:41:53.304Z,101169.31
2024-01-29T14:44:20.922Z,101189.88
2024-01-29T14:46:48.924Z,101159.56
2024-01-29T14:49:17.718Z,101147.75
2024-01-29T14:51:47.254Z,101163.47
2024-01-29T14:54:14.840Z,101164.59
2024-01-29T14:56:42.524Z,101170.00
2024-01-29T14:59:10.165Z,101176.25
2024-01-29T15:01:41.504Z,101182.19
2024-01-29T15:04:13.220Z,101178.81
2024-01-29T15:06:41.912Z,101171.69
2024-01-29T15:09:10.058Z,101188.69
2024-01-29T15:11:38.272Z,101159.56
2024-01-29T15:14:05.926Z,101174.47
2024-01-29T15:16:33.797Z,101215.91
2024-01-29T15:19:01.881Z,101224.94
2024-01-29T15:21:29.589Z,101222.56
2024-01-29T15:23:59.138Z,101234.03
2024-01-29T15:26:29.975Z,101225.81
2024-01-29T15:28:57.727Z,101228.50
2024-01-29T15:31:29.419Z,101221.66
2024-01-29T15:33:57.717Z,101205.22
2024-01-29T15:36:25.290Z,101207.06
2024-01-29T15:38:53.003Z,101194.47
2024-01-29T15:41:20.799Z,101192.78
2024-01-29T15:43:48.549Z,101171.31
2024-01-29T15:46:17.302Z,101174.97
2024-01-29T15:48:44.919Z,101162.59
2024-01-29T15:51:14.639Z,101147.81
2024-01-29T15:53:43.102Z,101179.63
2024-01-29T15:56:10.889Z,101133.78
2024-01-29T15:58:38.707Z,101121.69
2024-01-29T16:01:32.305Z,101156.78
2024-01-29T16:04:00.068Z,101135.44
2024-01-29T16:06:27.670Z,101152.13
2024-01-29T16:08:55.601Z,101145.00
2024-01-29T16:11:23.135Z,101113.16
2024-01-29T16:13:50.709Z,101126.94
2024-01-29T16:16:18.345Z,101098.22
2024-01-29T16:18:46.260Z,101067.09
2024-01-29T16:21:23.132Z,101033.91
2024-01-29T16:23:52.824Z,101008.47
2024-01-29T16:26:21.140Z,101018.63
2024-01-29T16:28:49.059Z,101052.56
2024-01-29T16:31:16.989Z,101048.44
2024-01-29T16:33:44.873Z,101003.44
2024-01-29T16:36:24.886Z,101014.34
2024-01-29T16:38:54.165Z,101007.16
2024-01-29T16:41:26.311Z,100940.47
2024-01-29T16:43:55.364Z,100993.41
2024-01-29T16:46:24.396Z,101004.28
2024-01-29T16:48:52.346Z,100969.91
2024-01-29T16:51:23.789Z,100980.16
2024-01-29T16:53:52.653Z,100976.88
2024-01-29T16:56:30.600Z,101021.16
2024-01-29T16:59:00.629Z,101002.47
2024-01-29T17:01:29.429Z,101011.97
2024-01-29T17:03:57.842Z,101049.69
2024-01-29T17:06:30.938Z,101049.31
2024-01-29T17:08:59.112Z,101050.47
2024-01-29T17:11:27.268Z,100998.91
2024-01-29T17:13:54.997Z,101048.84
2024-01-29T17:16:22.969Z,101050.03
2024-01-29T17:18:51.369Z,101012.38
2024-01-29T17:21:19.096Z,101017.75
2024-01-29T17:23:46.854Z,101035.03
2024-01-29T17:26:15.299Z,100998.38
2024-01-29T17:28:46.421Z,101013.19
2024-01-29T17:31:14.600Z,101001.22
2024-01-29T17:33:42.427Z,100988.66
2024-01-29T17:36:10.717Z,100954.34
2024-01-29T17:38:39.469Z,100937.06
2024-01-29T17:41:07.034Z,100914.06
2024-01-29T17:43:34.599Z,100936.03
2024-01-29T17:46:02.285Z,100908.34
2024-01-29T17:48:30.154Z,100921.78
2024-01-29T17:50:59.009Z,100922.56
2024-01-29T17:53:29.792Z,100918.69
2024-01-29T17:55:57.879Z,100933.44
2024-01-29T17:58:26.180Z,100934.22
2024-01-29T18:00:54.028Z,100889.19
2024-01-29T18:03:24.152Z,100905.56
2024-01-29T18:05:51.848Z,100895.75
2024-01-29T18:08:20.976Z,100895.88
2024-01-29T18:10:48.517Z,100905.53
2024-01-29T18:13:17.123Z,100901.44
2024-01-29T18:15:44.823Z,100894.75
2024-01-29T18:18:13.798Z,100906.31
2024-01-29T18:20:41.390Z,100877.63
2024-01-29T18:23:09.998Z,100893.84
2024-01-29T18:25:40.519Z,100898.19
2024-01-29T18:28:08.204Z,100830.22
2024-01-29T18:30:43.879Z,100894.25
2024-01-29T18:33:12.225Z,100890.97
2024-01-29T18:35:39.934Z,100884.34
2024-01-29T18:38:07.525Z,100893.34
2024-01-29T18:40:37.740Z,100893.00
2024-01-29T18:43:05.746Z,100865.47
2024-01-29T18:45:33.401Z,100876.25
2024-01-29T18:48:02.912Z,100884.47
2024-01-29T18:50:30.625Z,100880.22
2024-01-29T18:52:58.377Z,100873.31
2024-01-29T18:55:26.603Z,100829.59
2024-01-29T18:57:55.329Z,100854.44
2024-01-29T19:00:23.208Z,100857.44
2024-01-29T19:02:50.791Z,100849.25
2024-01-29T19:05:18.539Z,100804.25
2024-01-29T19:07:49.399Z,100842.00
2024-01-29T19:10:17.610Z,100861.78
2024-01-29T19:12:46.308Z,100847.50
2024-01-29T19:15:13.986Z,100838.41
2024-01-29T19:17:41.934Z,100834.06
2024-01-29T19:20:10.567Z,100830.31
2024-01-29T19:22:37.997Z,100748.31
2024-01-29T19:25:07.036Z,100807.47
2024-01-29T19:27:34.683Z,100833.63
2024-01-29T19:30:02.318Z,100821.47
2024-01-29T19:32:35.916Z,100828.41
2024-01-29T19:35:03.881Z,100828.72
2024-01-29T19:37:35.926Z,100847.81
2024-01-29T19:40:04.218Z,100847.38
2024-01-29T19:42:31.780Z,100841.91
2024-01-29T19:44:59.421Z,100802.44
2024-01-29T19:47:26.968Z,100848.81
2024-01-29T19:49:58.996Z,100827.63
2024-01-29T19:52:29.531Z,100826.19
2024-01-29T19:54:57.589Z,100834.47
2024-01-29T19:57:29.027Z,100843.19
2024-01-29T19:59:56.570Z,100837.78
2024-01-29T20:02:24.085Z,100838.66
2024-01-29T20:04:56.154Z,100838.81
2024-01-29T20:07:23.752Z,100865.50
2024-01-29T20:09:51.300Z,100864.63
2024-01-29T20:12:22.275Z,100845.78
2024-01-29T20:14:50.023Z,100834.38
2024-01-29T20:17:17.912Z,100836.00
2024-01-29T20:19:46.812Z,100850.94
2024-01-29T20:22:14.494Z,100858.91
2024-01-29T20:24:42.276Z,100860.44
2024-01-29T20:27:09.778Z,100848.59
2024-01-29T20:29:37.275Z,100841.09
2024-01-29T20:32:05.687Z,100825.59
2024-01-29T20:34:35.833Z,100827.16
2024-01-29T20:37:03.947Z,100843.97
2024-01-29T20:39:32.544Z,100837.28
2024-01-29T20:42:01.537Z,100840.06
2024-01-29T20:44:30.442Z,100825.44
2024-01-29T20:46:58.202Z,100822.53
2024-01-29T20:49:26.296Z,100817.44
2024-01-29T20:51:54.224Z,100799.25
2024-01-29T20:54:21.741Z,100787.94
2024-01-29T20:56:49.212Z,100825.59
2024-01-29T20:59:16.721Z,100773.50
2024-01-29T21:01:47.535Z,100809.75
2024-01-29T21:04:15.936Z,100794.84
2024-01-29T21:06:43.489Z,100779.16
2024-01-29T21:09:11.267Z,100809.88
2024-01-29T21:11:38.890Z,100813.44
2024-01-29T21:14:06.633Z,100796.84
2024-01-29T21:16:34.584Z,100808.81
2024-01-29T21:19:02.330Z,100783.97
2024-01-29T21:21:31.202Z,100793.31
2024-01-29T21:24:00.277Z,100796.81
2024-01-29T21:26:28.469Z,100792.56
2024-01-29T21:28:56.403Z,100762.75
2024-01-29T21:31:24.337Z,100738.53
2024-01-29T21:33:52.071Z,100798.56
2024-01-29T21:36:20.863Z,100809.97
2024-01-29T21:38:48.528Z,100773.44
2024-01-29T21:41:17.154Z,100810.41
2024-01-29T21:43:44.729Z,100802.44
2024-01-29T21:46:12.728Z,100815.41
2024-01-29T21:48:40.443Z,100808.88
2024-01-29T21:51:08.355Z,100803.03
2024-01-29T21:53:36.143Z,100790.66
2024-01-29T21:56:04.298Z,100794.63
2024-01-29T21:58:31.997Z,100801.97
2024-01-29T22:00:59.705Z,100804.81
2024-01-29T22:03:27.488Z,100789.59
2024-01-29T22:05:55.332Z,100793.22
2024-01-29T22:08:23.447Z,100777.00
2024-01-29T22:10:50.991Z,100752.09
2024-01-29T22:13:18.993Z,100736.53
2024-01-29T22:15:46.813Z,100774.25
2024-01-29T22:18:14.443Z,100779.97
2024-01-29T22:20:42.416Z,100762.75
2024-01-29T22:23:09.833Z,100718.09
2024-01-29T22:25:37.416Z,100723.69
2024-01-29T22:28:05.734Z,100770.00
2024-01-29T22:30:33.465Z,100776.06
2024-01-29T22:33:01.143Z,100766.78
2024-01-29T22:35:29.354Z,100734.09
2024-01-29T22:37:57.265Z,100764.75
2024-01-29T22:40:25.960Z,100759.78
2024-01-29T22:42:53.694Z,100713.50
2024-01-29T22:45:21.619Z,100745.50
2024-01-29T22:47:51.272Z,100733.81
2024-01-29T22:50:19.608Z,100726.84
2024-01-29T22:52:47.066Z,100735.25
2024-01-29T22:55:14.911Z,100708.31
2024-01-29T22:57:42.452Z,100720.16
2024-01-29T23:00:18.520Z,100721.81
2024-01-29T23:02:47.333Z,100720.84
2024-01-29T23:05:14.900Z,100635.25
2024-01-29T23:07:43.599Z,100709.19
2024-01-29T23:10:11.487Z,100704.25
2024-01-29T23:12:39.367Z,100713.94
2024-01-29T23:15:09.076Z,100672.44
2024-01-29T23:17:36.707Z,100699.91
2024-01-29T23:20:07.383Z,100705.09
2024-01-29T23:22:34.939Z,100687.84
2024-01-29T23:25:02.862Z,100696.34
2024-01-29T23:27:33.613Z,100677.00
2024-01-29T23:30:03.036Z,100636.44
2024-01-29T23:32:31.771Z,100636.19
2024-01-29T23:34:59.964Z,100676.75
2024-01-29T23:37:30.756Z,100679.34
2024-01-29T23:39:58.542Z,100687.50
2024-01-29T23:42:27.713Z,100660.09
2024-01-29T23:44:55.978Z,100680.16
2024-01-29T23:47:23.642Z,100650.75
2024-01-29T23:49:51.369Z,100669.84
2024-01-29T23:52:29.587Z,100674.84
2024-01-29T23:54:57.428Z,100672.47
2024-01-29T23:57:25.632Z,100664.72
2024-01-29T23:59:53.391Z,100669.06
